PABT/BTT METAR and TAF weather

Enter ICAO airport designator
Station Type Date Time Source
PABT METAR 2019/10/23 06:53 UTC NOAA

PABT 230653Z 36008KT 10SM FEW023 M09/M13 A2994 RMK AO2 SLP159 T10941133 $


Station Type Date Time Source
PABT Decoded METAR 2019/10/23 06:53 UTC NOAA

BETTLES AIRPORT, AK, United States (PABT) 66-54N 151-31W 196M
Oct 23, 2019 - 02:53 AM EDT / 2019.10.23 0653 UTC
Wind: from the N (360 degrees) at 9 MPH (8 KT):0
Visibility: 10 mile(s):0
Sky conditions: mostly clear
Temperature: 15.1 F (-9.4 C)
Windchill: 3 F (-16 C):1
Dew Point: 8.1 F (-13.3 C)
Relative Humidity: 73%
Pressure (altimeter): 29.94 in. Hg (1013 hPa)
ob: PABT 230653Z 36008KT 10SM FEW023 M09/M13 A2994 RMK AO2 SLP159 T10941133
cycle: 7

Station Type Date Time Source
PABT TAF 2019/10/23 06:22 UTC NOAA

TAF PABT 230520Z 2306/2406 35005KT P6SM OVC025
FM231400 36008G15KT P6SM BKN040 BKN100
FM232200 02011G18KT P6SM VCSH BKN100
FM240000 03008G15KT P6SM OVC050

Example: see airport list